createdAt,value
2022-08-11T00:02:31.443Z,0.30
2022-08-11T00:05:04.154Z,0.50
2022-08-11T00:07:31.390Z,0.62
2022-08-11T00:09:59.906Z,0.30
2022-08-11T00:12:27.899Z,0.37
2022-08-11T00:15:00.522Z,0.30
2022-08-11T00:17:30.143Z,0.40
2022-08-11T00:20:11.968Z,0.30
2022-08-11T00:22:44.315Z,0.30
2022-08-11T00:25:19.833Z,0.40
2022-08-11T00:27:48.044Z,0.50
2022-08-11T00:30:16.578Z,0.65
2022-08-11T00:32:46.761Z,0.30
2022-08-11T00:35:54.227Z,0.50
2022-08-11T00:38:04.228Z,0.40
2022-08-11T00:40:43.080Z,0.30
2022-08-11T00:43:25.185Z,0.30
2022-08-11T00:46:11.381Z,0.30
2022-08-11T00:49:00.556Z,0.30
2022-08-11T00:52:06.380Z,0.40
2022-08-11T00:54:39.436Z,0.40
2022-08-11T00:57:36.038Z,0.40
2022-08-11T01:00:26.652Z,0.30
2022-08-11T01:03:13.216Z,0.37
2022-08-11T01:06:02.988Z,0.35
2022-08-11T01:08:49.442Z,0.30
2022-08-11T01:12:00.959Z,0.50
2022-08-11T01:14:52.524Z,0.60
2022-08-11T01:17:56.677Z,0.40
2022-08-11T01:20:44.666Z,0.30
2022-08-11T01:23:43.040Z,0.30
2022-08-11T01:26:47.987Z,0.43
2022-08-11T01:29:33.664Z,0.50
2022-08-11T01:32:31.746Z,0.43
2022-08-11T01:35:37.355Z,0.32
2022-08-11T01:38:23.125Z,0.30
2022-08-11T01:41:20.721Z,0.53
2022-08-11T01:44:21.748Z,0.30
2022-08-11T01:47:53.146Z,0.30
2022-08-11T01:50:40.452Z,0.47
2022-08-11T01:53:07.520Z,0.30
2022-08-11T01:56:01.293Z,0.30
2022-08-11T01:58:44.550Z,0.30
2022-08-11T02:01:33.023Z,0.30
2022-08-11T02:04:15.256Z,0.30
2022-08-11T02:07:08.973Z,0.73
2022-08-11T02:09:49.510Z,0.40
2022-08-11T02:12:27.537Z,0.43
2022-08-11T02:15:22.566Z,0.30
2022-08-11T02:18:06.788Z,0.40
2022-08-11T02:21:14.007Z,0.30
2022-08-11T02:24:05.308Z,0.30
2022-08-11T02:26:40.522Z,0.30
2022-08-11T02:29:22.966Z,0.30
2022-08-11T02:32:24.803Z,0.22
2022-08-11T02:35:00.045Z,0.30
2022-08-11T02:37:33.866Z,0.40
2022-08-11T02:40:31.294Z,0.40
2022-08-11T02:43:07.246Z,0.30
2022-08-11T02:45:40.818Z,0.30
2022-08-11T02:48:32.647Z,0.30
2022-08-11T02:51:14.765Z,0.30
2022-08-11T02:54:14.073Z,0.30
2022-08-11T02:56:55.131Z,0.53
2022-08-11T02:59:52.226Z,0.30
2022-08-11T03:02:27.806Z,0.30
2022-08-11T03:04:57.877Z,0.40
2022-08-11T03:07:35.018Z,0.30
2022-08-11T03:10:33.867Z,0.30
2022-08-11T03:13:36.000Z,0.20
2022-08-11T03:16:40.733Z,0.30
2022-08-11T03:19:19.706Z,0.40
2022-08-11T03:22:06.405Z,0.50
2022-08-11T03:24:56.573Z,0.30
2022-08-11T03:27:54.496Z,0.30
2022-08-11T03:30:33.820Z,0.30
2022-08-11T03:33:43.814Z,0.82
2022-08-11T03:36:10.601Z,0.30
2022-08-11T03:38:53.135Z,0.40
2022-08-11T03:42:02.804Z,0.30
2022-08-11T03:44:43.592Z,0.77
2022-08-11T03:47:55.179Z,0.30
2022-08-11T03:51:00.167Z,1.23
2022-08-11T03:53:45.461Z,0.30
2022-08-11T03:56:40.000Z,0.30
2022-08-11T03:59:28.851Z,0.27
2022-08-11T04:02:33.197Z,0.30
2022-08-11T04:05:15.453Z,0.32
2022-08-11T04:07:45.216Z,0.30
2022-08-11T04:10:46.268Z,0.30
2022-08-11T04:13:45.282Z,0.40
2022-08-11T04:16:44.549Z,0.43
2022-08-11T04:19:50.426Z,0.40
2022-08-11T04:22:29.833Z,0.30
2022-08-11T04:25:11.879Z,0.40
2022-08-11T04:27:59.916Z,0.30
2022-08-11T04:30:50.237Z,0.23
2022-08-11T04:33:41.955Z,0.55
2022-08-11T04:36:53.666Z,0.40
2022-08-11T04:39:26.286Z,0.30
2022-08-11T04:42:27.179Z,0.30
2022-08-11T04:45:07.432Z,0.30
2022-08-11T04:48:04.624Z,0.40
2022-08-11T04:51:15.714Z,0.30
2022-08-11T04:54:27.793Z,0.30
2022-08-11T04:57:19.953Z,0.40
2022-08-11T05:00:27.423Z,0.30
2022-08-11T05:03:28.266Z,0.30
2022-08-11T05:06:25.253Z,0.85
2022-08-11T05:09:20.170Z,0.37
2022-08-11T05:12:20.200Z,0.30
2022-08-11T05:15:10.749Z,0.37
2022-08-11T05:18:19.707Z,0.30
2022-08-11T05:21:10.068Z,0.30
2022-08-11T05:24:02.291Z,0.47
2022-08-11T05:26:50.017Z,0.40
2022-08-11T05:29:55.094Z,0.45
2022-08-11T05:32:42.018Z,0.30
2022-08-11T05:35:09.734Z,0.40
2022-08-11T05:38:03.381Z,0.40
2022-08-11T05:40:51.314Z,0.53
2022-08-11T05:44:20.963Z,0.40
2022-08-11T05:46:58.870Z,0.30
2022-08-11T05:49:48.625Z,0.50
2022-08-11T05:52:43.261Z,0.40
2022-08-11T05:55:29.980Z,0.40
2022-08-11T05:58:00.058Z,0.60
2022-08-11T06:00:27.230Z,0.40
2022-08-11T06:03:00.979Z,0.30
2022-08-11T06:05:43.642Z,0.30
2022-08-11T06:08:13.496Z,0.30
2022-08-11T06:10:43.291Z,0.30
2022-08-11T06:13:11.238Z,0.40
2022-08-11T06:15:46.268Z,0.60
2022-08-11T06:18:14.446Z,0.50
2022-08-11T06:20:51.270Z,0.40
2022-08-11T06:23:20.609Z,0.32
2022-08-11T06:25:47.748Z,0.50
2022-08-11T06:28:20.554Z,0.50
2022-08-11T06:30:49.047Z,0.50
2022-08-11T06:33:36.443Z,0.40
2022-08-11T06:36:24.278Z,0.50
2022-08-11T06:39:00.571Z,0.50
2022-08-11T06:41:52.548Z,0.50
2022-08-11T06:44:32.473Z,0.43
2022-08-11T06:47:08.006Z,0.90
2022-08-11T06:49:56.834Z,0.60
2022-08-11T06:52:34.828Z,0.70
2022-08-11T06:55:55.609Z,0.60
2022-08-11T06:58:15.405Z,0.50
2022-08-11T07:00:42.635Z,0.50
2022-08-11T07:03:16.134Z,0.82
2022-08-11T07:05:53.040Z,0.50
2022-08-11T07:08:59.798Z,0.70
2022-08-11T07:12:08.312Z,0.60
2022-08-11T07:15:00.137Z,0.60
2022-08-11T07:17:29.142Z,0.62
2022-08-11T07:20:20.745Z,0.67
2022-08-11T07:23:17.309Z,1.73
2022-08-11T07:26:06.400Z,0.52
2022-08-11T07:28:53.557Z,0.70
2022-08-11T07:31:31.220Z,0.70
2022-08-11T07:34:22.893Z,0.73
2022-08-11T07:36:52.828Z,0.57
2022-08-11T07:39:26.260Z,0.90
2022-08-11T07:41:57.079Z,0.57
2022-08-11T07:44:34.949Z,0.70
2022-08-11T07:47:22.001Z,0.65
2022-08-11T07:50:09.567Z,0.70
2022-08-11T07:52:38.416Z,0.70
2022-08-11T07:55:08.507Z,0.70
2022-08-11T07:58:14.304Z,0.73
2022-08-11T08:01:10.397Z,1.00
2022-08-11T08:03:57.784Z,0.60
2022-08-11T08:06:45.744Z,0.70
2022-08-11T08:09:31.801Z,0.68
2022-08-11T08:12:19.753Z,0.80
2022-08-11T08:15:05.297Z,1.00
2022-08-11T08:18:09.697Z,0.85
2022-08-11T08:20:51.712Z,0.80
2022-08-11T08:23:33.269Z,0.70
2022-08-11T08:26:04.480Z,0.90
2022-08-11T08:28:32.949Z,1.17
2022-08-11T08:31:00.300Z,0.70
2022-08-11T08:33:29.439Z,0.70
2022-08-11T08:36:11.959Z,0.90
2022-08-11T08:38:49.253Z,0.60
2022-08-11T08:41:23.696Z,0.80
2022-08-11T08:43:53.891Z,0.70
2022-08-11T08:46:28.070Z,0.90
2022-08-11T08:48:55.425Z,0.80
2022-08-11T08:52:01.196Z,0.85
2022-08-11T08:54:43.477Z,0.60
2022-08-11T08:57:12.079Z,0.65
2022-08-11T08:59:48.879Z,0.68
2022-08-11T09:02:20.593Z,0.70
2022-08-11T09:05:02.930Z,0.70
2022-08-11T09:07:39.088Z,0.73
2022-08-11T09:10:10.246Z,0.70
2022-08-11T09:12:39.736Z,1.10
2022-08-11T09:15:10.306Z,0.80
2022-08-11T09:17:41.701Z,0.80
2022-08-11T09:20:13.444Z,0.70
2022-08-11T09:26:13.410Z,0.80
2022-08-11T09:28:45.877Z,0.80
2022-08-11T09:31:14.699Z,0.95
2022-08-11T09:33:43.449Z,0.70
2022-08-11T09:36:30.577Z,1.03
2022-08-11T09:39:17.069Z,0.77
2022-08-11T09:42:00.564Z,0.80
2022-08-11T09:44:49.562Z,0.70
2022-08-11T09:47:24.937Z,0.73
2022-08-11T09:50:02.381Z,0.50
2022-08-11T09:52:32.913Z,0.82
2022-08-11T09:55:00.142Z,0.68
2022-08-11T09:57:45.368Z,0.90
2022-08-11T10:00:15.254Z,0.70
2022-08-11T10:02:45.682Z,0.68
2022-08-11T10:05:34.513Z,0.85
2022-08-11T10:08:03.165Z,0.77
2022-08-11T10:10:31.076Z,0.90
2022-08-11T10:13:05.195Z,0.80
2022-08-11T10:15:59.758Z,0.98
2022-08-11T10:18:49.150Z,0.95
2022-08-11T10:21:25.181Z,0.82
2022-08-11T10:24:11.326Z,1.00
2022-08-11T10:26:57.272Z,1.20
2022-08-11T10:29:55.725Z,0.73
2022-08-11T10:32:58.102Z,1.10
2022-08-11T10:35:30.985Z,0.63
2022-08-11T10:38:06.616Z,0.90
2022-08-11T10:40:38.344Z,0.75
2022-08-11T10:43:13.426Z,0.95
2022-08-11T10:46:03.435Z,0.93
2022-08-11T10:48:35.346Z,1.00
2022-08-11T10:51:14.520Z,0.98
2022-08-11T10:54:06.123Z,0.82
2022-08-11T10:56:54.497Z,0.70
2022-08-11T10:59:23.594Z,0.90
2022-08-11T11:01:50.626Z,0.93
2022-08-11T11:04:19.331Z,0.85
2022-08-11T11:06:49.063Z,0.87
2022-08-11T11:09:26.009Z,0.60
2022-08-11T11:12:38.473Z,1.70
2022-08-11T11:15:25.117Z,0.80
2022-08-11T11:18:04.619Z,1.05
2022-08-11T11:20:47.117Z,0.70
2022-08-11T11:23:25.807Z,0.70
2022-08-11T11:26:09.977Z,1.20
2022-08-11T11:29:03.844Z,0.93
2022-08-11T11:32:08.977Z,1.23
2022-08-11T11:35:12.046Z,0.60
2022-08-11T11:37:40.423Z,0.93
2022-08-11T11:40:12.990Z,1.15
2022-08-11T11:42:42.854Z,1.00
2022-08-11T11:45:10.613Z,0.95
2022-08-11T11:47:52.582Z,0.90
2022-08-11T11:50:31.740Z,0.70
2022-08-11T11:53:02.185Z,0.80
2022-08-11T11:55:30.013Z,0.90
2022-08-11T11:58:18.857Z,0.90
2022-08-11T12:01:05.490Z,0.73
2022-08-11T12:03:33.563Z,1.00
2022-08-11T12:06:00.781Z,1.10
2022-08-11T12:08:28.127Z,0.88
2022-08-11T12:11:20.650Z,0.80
2022-08-11T12:13:51.115Z,0.80
2022-08-11T12:16:34.770Z,0.95
2022-08-11T12:19:17.456Z,0.80
2022-08-11T12:22:03.846Z,0.73
2022-08-11T12:24:50.159Z,0.80
2022-08-11T12:27:24.169Z,0.95
2022-08-11T12:29:56.646Z,1.00
2022-08-11T12:32:30.705Z,0.82
2022-08-11T12:34:58.127Z,0.70
2022-08-11T12:37:32.117Z,0.85
2022-08-11T12:40:50.002Z,0.80
2022-08-11T12:43:38.290Z,0.88
2022-08-11T12:46:35.035Z,0.88
2022-08-11T12:49:32.208Z,0.80
2022-08-11T12:52:14.520Z,0.80
2022-08-11T12:54:52.247Z,0.90
2022-08-11T12:57:52.406Z,0.70
2022-08-11T13:00:38.549Z,0.95
2022-08-11T13:03:26.099Z,1.00
2022-08-11T13:05:56.093Z,0.80
2022-08-11T13:08:26.088Z,0.60
2022-08-11T13:11:12.599Z,0.68
2022-08-11T13:13:55.226Z,0.70
2022-08-11T13:16:57.719Z,0.70
2022-08-11T13:19:25.448Z,0.80
2022-08-11T13:21:53.104Z,0.80
2022-08-11T13:24:20.924Z,0.80
2022-08-11T13:26:50.575Z,0.85
2022-08-11T13:29:19.425Z,0.90
2022-08-11T13:31:46.498Z,0.60
2022-08-11T13:34:13.692Z,0.65
2022-08-11T13:36:41.414Z,0.70
2022-08-11T13:39:09.570Z,0.60
2022-08-11T13:41:39.437Z,0.68
2022-08-11T13:44:07.758Z,0.68
2022-08-11T13:46:35.123Z,0.70
2022-08-11T13:49:02.262Z,0.90
2022-08-11T13:51:35.380Z,0.77
2022-08-11T13:54:21.437Z,0.60
2022-08-11T13:56:52.355Z,1.27
2022-08-11T13:59:22.993Z,0.63
2022-08-11T14:02:22.290Z,0.60
2022-08-11T14:04:57.474Z,0.90
2022-08-11T14:07:27.363Z,0.70
2022-08-11T14:09:58.609Z,0.80
2022-08-11T14:12:50.064Z,1.37
2022-08-11T14:15:21.178Z,0.85
2022-08-11T14:18:09.626Z,0.90
2022-08-11T14:20:59.781Z,0.80
2022-08-11T14:23:30.982Z,0.70
2022-08-11T14:26:16.426Z,0.70
2022-08-11T14:28:45.108Z,0.70
2022-08-11T14:31:15.043Z,0.50
2022-08-11T14:33:58.618Z,0.85
2022-08-11T14:36:39.549Z,0.80
2022-08-11T14:39:13.048Z,0.80
2022-08-11T14:42:10.863Z,0.70
2022-08-11T14:45:02.451Z,0.60
2022-08-11T14:47:37.274Z,0.70
2022-08-11T14:50:11.746Z,0.70
2022-08-11T14:52:59.488Z,0.70
2022-08-11T14:55:47.717Z,0.77
2022-08-11T14:58:18.276Z,0.70
2022-08-11T15:00:45.595Z,0.88
2022-08-11T15:03:16.457Z,0.70
2022-08-11T15:05:58.366Z,0.70
2022-08-11T15:08:57.044Z,0.60
2022-08-11T15:11:47.655Z,0.60
2022-08-11T15:14:35.294Z,0.70
2022-08-11T15:17:08.252Z,0.50
2022-08-11T15:20:00.772Z,0.60
2022-08-11T15:22:46.832Z,0.80
2022-08-11T15:25:13.826Z,0.50
2022-08-11T15:28:00.677Z,0.80
2022-08-11T15:30:47.688Z,0.70
2022-08-11T15:33:34.651Z,0.70
2022-08-11T15:36:22.804Z,0.60
2022-08-11T15:38:55.803Z,0.60
2022-08-11T15:41:54.624Z,0.90
2022-08-11T15:45:05.261Z,0.62
2022-08-11T15:47:41.662Z,0.50
2022-08-11T15:50:15.507Z,0.60
2022-08-11T15:52:59.622Z,0.70
2022-08-11T15:55:29.963Z,0.80
2022-08-11T15:58:18.332Z,0.60
2022-08-11T16:01:09.144Z,0.70
2022-08-11T16:04:09.567Z,0.57
2022-08-11T16:07:01.686Z,0.65
2022-08-11T16:09:44.533Z,0.70
2022-08-11T16:12:18.572Z,0.43
2022-08-11T16:15:07.433Z,0.80
2022-08-11T16:17:50.838Z,0.50
2022-08-11T16:20:21.973Z,0.60
2022-08-11T16:22:55.281Z,0.80
2022-08-11T16:27:02.759Z,0.60
2022-08-11T16:28:16.986Z,0.60
2022-08-11T16:30:46.423Z,1.47
2022-08-11T16:33:48.332Z,0.60
2022-08-11T16:36:19.794Z,0.70
2022-08-11T16:38:46.862Z,0.50
2022-08-11T16:41:37.654Z,0.50
2022-08-11T16:44:32.577Z,0.60
2022-08-11T16:47:10.926Z,0.50
2022-08-11T16:49:43.002Z,0.50
2022-08-11T16:52:14.374Z,0.32
2022-08-11T16:54:44.438Z,0.57
2022-08-11T16:57:50.376Z,0.77
2022-08-11T17:00:17.981Z,0.82
2022-08-11T17:03:11.068Z,0.57
2022-08-11T17:06:04.510Z,0.47
2022-08-11T17:08:58.042Z,0.40
2022-08-11T17:11:55.440Z,0.40
2022-08-11T17:14:35.214Z,0.43
2022-08-11T17:17:05.227Z,0.40
2022-08-11T17:20:40.018Z,0.40
2022-08-11T17:22:39.259Z,0.40
2022-08-11T17:25:07.199Z,0.30
2022-08-11T17:27:35.316Z,0.40
2022-08-11T17:30:05.473Z,0.40
2022-08-11T17:33:00.440Z,0.30
2022-08-11T17:35:46.190Z,0.75
2022-08-11T17:38:18.541Z,0.30
2022-08-11T17:41:08.750Z,0.70
2022-08-11T17:43:56.159Z,0.40
2022-08-11T17:46:42.596Z,0.70
2022-08-11T17:49:12.141Z,0.50
2022-08-11T17:52:00.992Z,0.37
2022-08-11T17:54:46.507Z,0.60
2022-08-11T17:57:33.279Z,0.30
2022-08-11T18:00:01.053Z,0.52
2022-08-11T18:02:55.115Z,0.40
2022-08-11T18:05:24.597Z,0.50
2022-08-11T18:08:12.898Z,0.40
2022-08-11T18:10:59.152Z,0.50
2022-08-11T18:13:49.007Z,0.40
2022-08-11T18:16:34.383Z,0.40
2022-08-11T18:19:20.007Z,0.40
2022-08-11T18:22:15.385Z,0.43
2022-08-11T18:25:10.880Z,0.87
2022-08-11T18:28:01.160Z,0.40
2022-08-11T18:30:49.927Z,0.55
2022-08-11T18:34:03.924Z,0.40
2022-08-11T18:36:50.901Z,0.77
2022-08-11T18:39:38.736Z,0.50
2022-08-11T18:42:29.944Z,0.40
2022-08-11T18:45:20.529Z,0.40
2022-08-11T18:48:11.330Z,0.40
2022-08-11T18:51:29.746Z,0.40
2022-08-11T18:54:13.782Z,0.50
2022-08-11T18:57:01.383Z,0.40
2022-08-11T18:59:47.584Z,0.40
2022-08-11T19:02:48.983Z,0.40
2022-08-11T19:06:32.116Z,0.50
2022-08-11T19:08:50.441Z,0.40
2022-08-11T19:11:42.507Z,0.40
2022-08-11T19:14:30.818Z,0.55
2022-08-11T19:17:43.823Z,0.47
2022-08-11T19:20:27.990Z,0.40
2022-08-11T19:23:14.490Z,0.40
2022-08-11T19:26:02.482Z,0.40
2022-08-11T19:28:48.445Z,0.40
2022-08-11T19:31:34.227Z,0.30
2022-08-11T19:34:20.672Z,0.40
2022-08-11T19:37:07.083Z,0.40
2022-08-11T19:39:53.904Z,0.50
2022-08-11T19:42:39.958Z,0.40
2022-08-11T19:45:25.904Z,0.30
2022-08-11T19:48:31.219Z,0.30
2022-08-11T19:51:18.519Z,0.30
2022-08-11T19:54:06.049Z,0.37
2022-08-11T19:56:52.304Z,0.40
2022-08-11T19:59:38.826Z,0.45
2022-08-11T20:02:24.740Z,0.40
2022-08-11T20:05:10.312Z,0.40
2022-08-11T20:07:56.105Z,0.40
2022-08-11T20:10:41.821Z,0.40
2022-08-11T20:13:28.464Z,0.47
2022-08-11T20:16:15.120Z,0.40
2022-08-11T20:19:04.942Z,0.40
2022-08-11T20:21:50.775Z,0.47
2022-08-11T20:24:36.990Z,0.40
2022-08-11T20:27:24.975Z,0.30
2022-08-11T20:30:12.340Z,0.40
2022-08-11T20:32:59.804Z,0.32
2022-08-11T20:35:45.438Z,0.40
2022-08-11T20:38:32.734Z,0.40
2022-08-11T20:41:19.309Z,0.40
2022-08-11T20:44:09.077Z,0.40
2022-08-11T20:46:59.351Z,0.37
2022-08-11T20:49:53.618Z,0.40
2022-08-11T20:52:47.397Z,0.32
2022-08-11T20:55:51.718Z,0.40
2022-08-11T21:01:46.608Z,0.30
2022-08-11T21:04:33.230Z,0.40
2022-08-11T21:07:29.152Z,0.43
2022-08-11T21:10:23.481Z,0.40
2022-08-11T21:13:24.219Z,0.70
2022-08-11T21:16:25.736Z,0.30
2022-08-11T21:20:01.690Z,0.40
2022-08-11T21:22:34.598Z,0.40
2022-08-11T21:25:21.050Z,0.40
2022-08-11T21:28:09.052Z,0.30
2022-08-11T21:30:57.807Z,0.40
2022-08-11T21:33:46.147Z,0.30
2022-08-11T21:36:32.529Z,0.30
2022-08-11T21:39:20.389Z,0.40
2022-08-11T21:42:11.936Z,0.30
2022-08-11T21:44:57.782Z,0.30
2022-08-11T21:47:44.327Z,0.30
2022-08-11T21:50:30.234Z,0.40
2022-08-11T21:53:16.709Z,0.30
2022-08-11T21:56:02.800Z,0.40
2022-08-11T21:58:48.987Z,0.30
2022-08-11T22:01:35.600Z,0.30
2022-08-11T22:04:23.378Z,0.30
2022-08-11T22:07:09.721Z,0.30
2022-08-11T22:09:55.964Z,0.30
2022-08-11T22:12:44.922Z,0.30
2022-08-11T22:15:31.679Z,0.30
2022-08-11T22:18:20.627Z,0.30
2022-08-11T22:21:06.680Z,0.30
2022-08-11T22:23:55.563Z,0.32
2022-08-11T22:26:42.794Z,0.30
2022-08-11T22:29:38.315Z,0.30
2022-08-11T22:32:36.889Z,0.30
2022-08-11T22:35:23.452Z,0.40
2022-08-11T22:38:09.066Z,0.30
2022-08-11T22:40:55.916Z,0.30
2022-08-11T22:43:41.341Z,0.30
2022-08-11T22:46:26.812Z,0.30
2022-08-11T22:49:12.872Z,0.30
2022-08-11T22:51:59.801Z,0.30
2022-08-11T22:54:45.616Z,0.30
2022-08-11T22:57:33.441Z,0.30
2022-08-11T23:00:19.858Z,0.30
2022-08-11T23:03:05.650Z,0.30
2022-08-11T23:05:54.680Z,0.30
2022-08-11T23:08:40.545Z,0.30
2022-08-11T23:11:26.017Z,0.30
2022-08-11T23:14:32.554Z,0.30
2022-08-11T23:17:18.861Z,0.30
2022-08-11T23:20:11.878Z,0.30
2022-08-11T23:23:11.754Z,0.50
2022-08-11T23:25:58.218Z,0.40
2022-08-11T23:28:44.908Z,0.40
2022-08-11T23:31:50.388Z,0.32
2022-08-11T23:35:03.456Z,0.30
2022-08-11T23:37:46.756Z,0.30
2022-08-11T23:40:32.387Z,0.95
2022-08-11T23:43:19.704Z,0.30
2022-08-11T23:46:05.170Z,0.30
2022-08-11T23:48:51.107Z,0.30
2022-08-11T23:51:40.950Z,0.98
2022-08-11T23:54:28.405Z,0.30
2022-08-11T23:57:14.508Z,0.47
